Time;durP1;ratioP1;P1;durP2;ratioP2;P2;SDS_P1;SDS_P2;PMS_P1;PMS_P2;Temp;Humidity;BMP_temperature;BMP_pressure;BME280_temperature;BME280_humidity;BME280_pressure;Samples;Min_cycle;Max_cycle;Signal;HPM_P1;HPM_P2
2022/12/01 00:01:52;;;;;;;54.03;32.67;;;;;;;8.01;68.28;101420.72;4958054;28;20249;-83
2022/12/01 00:04:19;;;;;;;54.28;32.42;;;;;;;7.58;68.06;101355.63;4957224;28;20054;-82
2022/12/01 00:06:45;;;;;;;54.80;32.72;;;;;;;8.31;68.11;101487.50;4952674;28;20065;-81
2022/12/01 00:12:00;;;;;;;53.75;32.65;;;;;;;8.32;67.78;101480.41;4960024;28;20105;-82
2022/12/01 00:14:27;;;;;;;55.25;32.45;;;;;;;8.01;67.58;101436.56;4959106;28;20047;-83
2022/12/01 00:16:54;;;;;;;50.67;31.95;;;;;;;8.10;67.73;101441.28;4958807;28;20511;-80
2022/12/01 00:19:24;;;;;;;52.10;33.00;;;;;;;8.13;67.50;101427.84;4959682;28;20469;-81
2022/12/01 00:21:53;;;;;;;53.65;32.58;;;;;;;6.90;67.81;101244.69;4975584;28;20133;-82
2022/12/01 00:24:22;;;;;;;53.42;32.75;;;;;;;7.34;67.57;101328.13;4973737;28;20475;-80
2022/12/01 00:26:49;;;;;;;49.65;32.15;;;;;;;8.18;67.67;101446.94;4959015;28;20058;-82
2022/12/01 00:29:16;;;;;;;56.22;34.38;;;;;;;8.34;67.43;101484.63;4958876;28;20070;-82
2022/12/01 00:31:43;;;;;;;54.22;31.95;;;;;;;7.93;67.59;101410.63;4959752;28;20444;-79
2022/12/01 00:34:32;;;;;;;52.65;33.90;;;;;;;7.84;67.62;101406.81;4939176;28;20349;-82
2022/12/01 00:37:00;;;;;;;50.53;32.78;;;;;;;8.30;67.69;101469.94;4935094;29;20152;-80
2022/12/01 00:39:30;;;;;;;52.58;33.35;;;;;;;7.84;67.57;101403.28;4927663;29;20058;-80
2022/12/01 00:41:57;;;;;;;51.00;31.67;;;;;;;7.51;67.86;101364.06;4922765;29;20055;-82
2022/12/01 00:44:23;;;;;;;56.92;32.55;;;;;;;7.73;67.67;101390.78;4920602;29;20043;-83
2022/12/01 00:46:51;;;;;;;54.30;32.35;;;;;;;7.90;68.29;101437.28;4934839;29;20051;-81
2022/12/01 00:49:21;;;;;;;55.47;32.72;;;;;;;8.07;67.39;101446.78;4922026;29;20059;-81
2022/12/01 00:51:54;;;;;;;54.35;33.47;;;;;;;7.21;66.96;101288.47;4918927;29;20058;-81
2022/12/01 00:54:20;;;;;;;;;;;;;;;8.33;67.95;101490.06;4941259;29;20055;-80
2022/12/01 00:56:47;;;;;;;52.38;32.13;;;;;;;8.14;67.61;101471.88;4936758;29;20355;-81
2022/12/01 00:59:14;;;;;;;56.22;33.45;;;;;;;7.51;67.12;101358.75;4950188;28;20046;-82
2022/12/01 01:01:41;;;;;;;49.95;32.03;;;;;;;7.10;68.27;101312.06;4957903;28;20480;-82
2022/12/01 01:04:08;;;;;;;52.53;34.40;;;;;;;8.18;68.48;101497.19;4937923;29;20133;-78
2022/12/01 01:06:44;;;;;;;55.63;32.42;;;;;;;7.61;67.74;101387.13;4923556;28;20051;-80
2022/12/01 01:09:13;;;;;;;59.88;35.50;;;;;;;8.07;68.18;101474.06;4919438;29;20138;-80
2022/12/01 01:11:42;;;;;;;57.38;34.80;;;;;;;8.16;68.11;101482.38;4923141;29;20345;-82
2022/12/01 01:14:13;;;;;;;57.75;32.80;;;;;;;7.45;67.87;101347.66;4914269;29;20714;-81
2022/12/01 01:16:40;;;;;;;53.42;33.92;;;;;;;7.82;68.13;101424.56;4915054;29;20797;-80
2022/12/01 01:19:08;;;;;;;55.97;34.85;;;;;;;8.22;68.44;101496.03;4913261;29;20070;-83
2022/12/01 01:21:36;;;;;;;51.80;34.55;;;;;;;7.39;68.01;101355.94;4902167;29;20823;-82
2022/12/01 01:24:03;;;;;;;52.67;33.25;;;;;;;7.82;67.93;101421.06;4910784;29;20085;-82
2022/12/01 01:26:36;;;;;;;54.20;35.88;;;;;;;8.15;68.78;101492.06;4936303;28;20055;-82
2022/12/01 01:29:07;;;;;;;53.35;35.50;;;;;;;7.88;68.83;101453.22;4935508;28;20210;-82
2022/12/01 01:31:35;;;;;;;62.13;36.15;;;;;;;8.27;68.16;101480.69;4916732;28;20288;-83
2022/12/01 01:34:03;;;;;;;54.95;35.72;;;;;;;8.26;68.10;101494.03;4915829;29;20051;-81
2022/12/01 01:36:30;;;;;;;58.92;35.03;;;;;;;8.14;68.65;101466.59;4916203;29;20066;-82
2022/12/01 01:38:57;;;;;;;52.03;34.53;;;;;;;8.11;68.31;101461.50;4901385;29;20059;-83
2022/12/01 01:41:26;;;;;;;53.88;34.13;;;;;;;7.69;69.34;101413.06;4901056;29;20056;-84
2022/12/01 01:44:03;;;;;;;63.60;35.60;;;;;;;7.82;68.69;101421.91;4900004;29;20063;-82
2022/12/01 01:46:35;;;;;;;61.60;37.00;;;;;;;7.71;68.37;101385.59;4914763;29;20131;-82
2022/12/01 01:49:10;;;;;;;58.97;34.63;;;;;;;7.89;68.20;101417.94;4896541;29;20607;-82
2022/12/01 01:51:44;;;;;;;56.88;37.13;;;;;;;7.86;68.55;101422.56;4914023;29;20513;-82
2022/12/01 01:54:24;;;;;;;61.13;37.05;;;;;;;7.81;69.39;101425.50;4914785;29;20231;-83
2022/12/01 01:56:53;;;;;;;57.17;35.25;;;;;;;7.95;69.12;101443.13;4909039;29;20277;-83
2022/12/01 01:59:28;;;;;;;56.63;36.25;;;;;;;7.86;68.87;101428.72;4913586;29;20058;-84
2022/12/01 02:02:07;;;;;;;58.45;35.35;;;;;;;7.91;68.84;101421.34;4903188;28;20508;-82
2022/12/01 02:04:37;;;;;;;57.20;35.22;;;;;;;8.02;69.13;101460.28;4919931;28;20604;-84
2022/12/01 02:07:07;;;;;;;60.28;36.58;;;;;;;8.04;68.95;101462.84;4904273;29;20108;-83
2022/12/01 02:09:36;;;;;;;57.63;35.50;;;;;;;8.03;68.82;101447.91;4920901;29;20047;-83
2022/12/01 02:12:14;;;;;;;53.83;35.35;;;;;;;7.60;68.45;101374.03;4904232;29;20497;-82
2022/12/01 02:14:50;;;;;;;61.58;36.35;;;;;;;8.07;68.92;101460.84;4920752;29;20492;-82
2022/12/01 02:17:24;;;;;;;60.72;37.15;;;;;;;7.95;69.05;101448.41;4919591;29;20059;-81
2022/12/01 02:19:58;;;;;;;61.30;36.95;;;;;;;8.15;68.13;101465.63;4922963;29;20913;-82
2022/12/01 02:22:46;;;;;;;57.67;36.75;;;;;;;7.65;69.47;101398.38;4920077;29;20405;-82
2022/12/01 02:25:54;;;;;;;64.20;35.67;;;;;;;7.86;70.17;101460.44;4905790;29;20513;-83
2022/12/01 02:28:35;;;;;;;56.42;34.65;;;;;;;7.95;69.35;101468.72;4907901;29;20544;-80
2022/12/01 02:31:30;;;;;;;56.78;35.72;;;;;;;7.86;69.44;101444.59;4921434;29;20156;-83
2022/12/01 02:34:05;;;;;;;59.80;37.15;;;;;;;7.96;69.52;101454.53;4920330;29;20067;-83
2022/12/01 02:36:49;;;;;;;59.25;36.83;;;;;;;8.04;69.74;101478.72;4933011;28;20058;-83
2022/12/01 02:39:29;;;;;;;56.33;35.78;;;;;;;7.96;69.94;101439.56;4955848;28;20062;-83
2022/12/01 02:42:05;;;;;;;59.17;37.42;;;;;;;8.13;69.18;101468.38;4945080;28;20058;-84
2022/12/01 02:44:41;;;;;;;55.63;36.05;;;;;;;8.12;69.67;101461.38;4943904;28;20223;-83
2022/12/01 02:47:12;;;;;;;57.42;36.13;;;;;;;7.89;69.10;101428.50;4954320;28;20160;-83
2022/12/01 02:49:47;;;;;;;58.10;34.83;;;;;;;7.98;69.63;101447.38;4955797;28;20400;-83
2022/12/01 02:52:15;;;;;;;54.92;35.13;;;;;;;8.07;69.52;101463.47;4938927;28;20047;-81
2022/12/01 02:54:44;;;;;;;60.67;38.60;;;;;;;7.86;70.50;101439.28;4953775;28;20073;-83
2022/12/01 02:57:12;;;;;;;55.80;36.10;;;;;;;8.03;69.76;101461.13;4953706;28;20179;-84
2022/12/01 02:59:48;;;;;;;60.80;35.55;;;;;;;8.05;69.76;101464.53;4936963;28;20500;-82
2022/12/01 03:02:31;;;;;;;65.20;36.75;;;;;;;7.85;69.84;101428.81;4938748;28;20413;-82
2022/12/01 03:04:58;;;;;;;60.50;37.03;;;;;;;8.09;69.54;101458.94;4939817;28;20549;-82
2022/12/01 03:07:57;;;;;;;58.90;36.08;;;;;;;8.00;69.21;101441.03;4953984;28;20497;-83
2022/12/01 03:10:40;;;;;;;61.30;35.58;;;;;;;8.09;69.92;101458.09;4937061;28;20055;-82
2022/12/01 03:13:21;;;;;;;60.45;36.63;;;;;;;7.96;69.59;101436.03;4956134;28;20575;-82
2022/12/01 03:16:02;;;;;;;62.30;36.53;;;;;;;8.22;69.14;101461.63;4952817;28;20357;-83
2022/12/01 03:18:49;;;;;;;63.78;37.20;;;;;;;8.10;68.76;101449.22;4953390;28;20054;-83
2022/12/01 03:21:51;;;;;;;58.50;36.83;;;;;;;7.80;69.74;101404.47;4951742;28;20591;-83
2022/12/01 03:24:21;;;;;;;56.25;35.35;;;;;;;8.18;68.81;101459.28;4934474;28;20061;-83
2022/12/01 03:26:55;;;;;;;59.50;34.70;;;;;;;7.95;69.41;101431.69;4954584;28;20311;-82
2022/12/01 03:29:42;;;;;;;65.05;38.22;;;;;;;8.03;69.50;101439.97;4954214;28;20059;-83
2022/12/01 03:32:19;;;;;;;61.90;37.25;;;;;;;8.11;68.71;101438.53;4939080;28;20222;-82
2022/12/01 03:34:58;;;;;;;62.83;36.75;;;;;;;8.12;68.72;101436.75;4924842;28;20444;-83
2022/12/01 03:37:35;;;;;;;58.40;34.88;;;;;;;8.25;68.53;101445.59;4938239;28;20138;-82
2022/12/01 03:40:05;;;;;;;60.13;36.83;;;;;;;7.75;68.75;101364.28;4941246;28;20051;-82
2022/12/01 03:42:42;;;;;;;60.78;37.38;;;;;;;8.13;68.78;101441.94;4938239;28;20539;-82
2022/12/01 03:45:39;;;;;;;59.25;35.90;;;;;;;8.11;68.73;101449.13;4938857;28;20136;-82
2022/12/01 03:48:09;;;;;;;59.60;37.17;;;;;;;7.98;69.45;101432.34;4923018;28;20055;-83
2022/12/01 03:50:48;;;;;;;63.58;37.97;;;;;;;7.73;68.90;101385.50;4923040;28;20058;-83
2022/12/01 03:53:27;;;;;;;60.42;38.85;;;;;;;7.81;69.08;101407.00;4939787;28;20456;-82
2022/12/01 03:56:01;;;;;;;62.35;38.97;;;;;;;7.60;69.46;101371.41;4941672;28;20050;-82
2022/12/01 03:58:36;;;;;;;61.90;39.05;;;;;;;7.68;69.42;101392.88;4948706;28;20768;-82
2022/12/01 04:01:06;;;;;;;59.83;38.80;;;;;;;7.93;69.36;101427.34;4960357;28;20062;-82
2022/12/01 04:03:33;;;;;;;59.65;38.17;;;;;;;8.06;69.46;101445.09;4943303;28;20571;-83
2022/12/01 04:06:01;;;;;;;62.28;37.67;;;;;;;7.98;69.46;101431.50;4958477;28;20554;-82
2022/12/01 04:08:29;;;;;;;57.78;36.75;;;;;;;8.06;69.12;101445.09;4959457;28;20061;-83
2022/12/01 04:10:56;;;;;;;61.63;38.55;;;;;;;7.77;69.25;101407.28;4956375;28;20054;-83
2022/12/01 04:13:25;;;;;;;62.13;39.15;;;;;;;7.97;69.18;101441.22;4956168;28;20137;-83
2022/12/01 04:15:53;;;;;;;59.58;38.83;;;;;;;7.93;69.27;101437.06;4956456;28;20234;-82
2022/12/01 04:18:22;;;;;;;60.75;37.97;;;;;;;7.48;69.47;101376.50;4940530;28;20050;-81
2022/12/01 04:20:50;;;;;;;63.17;39.67;;;;;;;7.88;69.35;101437.38;4956866;28;20070;-81
2022/12/01 04:26:12;;;;;;;67.47;37.95;;;;;;;7.90;69.40;101451.34;4953026;28;20555;-81
2022/12/01 04:28:44;;;;;;;60.72;38.83;;;;;;;7.76;69.53;101427.59;4955543;28;21021;-82
2022/12/01 04:31:11;;;;;;;61.97;38.42;;;;;;;7.71;69.49;101419.09;4957166;28;20047;-82
2022/12/01 04:33:38;;;;;;;57.83;36.80;;;;;;;7.82;69.57;101437.78;4937663;28;20343;-82
2022/12/01 04:36:05;;;;;;;62.47;38.28;;;;;;;7.74;69.39;101424.19;4935790;28;20062;-81
2022/12/01 04:38:35;;;;;;;61.20;38.38;;;;;;;7.98;69.41;101463.22;4934776;28;20420;-81
2022/12/01 04:41:10;;;;;;;63.10;40.00;;;;;;;7.85;69.84;101457.88;4954555;28;20654;-82
2022/12/01 04:43:46;;;;;;;64.85;38.28;;;;;;;7.91;70.39;101468.91;4936812;28;20050;-82
2022/12/01 04:46:13;;;;;;;59.78;38.47;;;;;;;7.97;69.98;101467.66;4950798;28;20591;-84
2022/12/01 04:48:42;;;;;;;63.15;40.08;;;;;;;8.00;69.46;101474.56;4937476;28;20417;-83
2022/12/01 04:51:09;;;;;;;66.32;39.58;;;;;;;7.99;69.19;101470.22;4951925;28;20268;-83
2022/12/01 04:53:36;;;;;;;63.03;39.47;;;;;;;7.76;69.20;101440.81;4939841;28;20650;-82
2022/12/01 04:56:03;;;;;;;69.22;37.72;;;;;;;7.91;69.15;101452.19;4954171;28;20165;-82
2022/12/01 04:58:31;;;;;;;64.70;39.70;;;;;;;7.22;68.99;101332.41;4949761;28;20042;-85
2022/12/01 05:01:05;;;;;;;58.67;37.30;;;;;;;7.95;69.28;101469.56;4940423;28;20050;-84
2022/12/01 05:03:42;;;;;;;62.58;38.95;;;;;;;7.99;68.92;101454.38;4938441;28;20050;-84
2022/12/01 05:06:15;;;;;;;61.22;38.13;;;;;;;7.90;69.08;101456.63;4944363;28;20211;-84
2022/12/01 05:08:42;;;;;;;61.47;37.10;;;;;;;7.59;69.48;101404.88;4934244;28;20051;-83
2022/12/01 05:11:13;;;;;;;60.00;37.92;;;;;;;8.02;69.15;101465.56;4934696;28;20042;-83
2022/12/01 05:13:44;;;;;;;60.70;38.10;;;;;;;6.42;69.11;101213.34;4953291;28;20268;-83
2022/12/01 05:16:23;;;;;;;61.90;38.47;;;;;;;7.66;69.40;101414.09;4955486;28;20141;-82
2022/12/01 05:21:46;;;;;;;64.00;37.75;;;;;;;7.81;69.97;101459.84;4940205;28;20124;-84
2022/12/01 05:24:17;;;;;;;65.65;38.20;;;;;;;7.79;69.40;101452.97;4937862;28;20472;-81
2022/12/01 05:26:44;;;;;;;63.25;38.40;;;;;;;7.62;69.56;101406.47;4937925;28;20475;-82
2022/12/01 05:29:11;;;;;;;55.13;36.03;;;;;;;7.84;69.75;101453.53;4940122;28;20310;-83
2022/12/01 05:31:41;;;;;;;58.08;37.50;;;;;;;7.60;69.17;101397.81;4933844;28;20058;-81
2022/12/01 05:34:12;;;;;;;60.15;37.45;;;;;;;7.72;69.60;101428.75;4940442;28;20413;-83
2022/12/01 05:36:40;;;;;;;60.90;38.00;;;;;;;7.77;69.64;101431.94;4921666;28;20400;-83
2022/12/01 05:39:07;;;;;;;67.15;37.65;;;;;;;7.47;68.94;101358.94;4935630;28;20194;-81
2022/12/01 05:41:34;;;;;;;60.53;37.10;;;;;;;7.74;69.03;101432.13;4932060;28;20129;-83
2022/12/01 05:44:01;;;;;;;63.85;38.55;;;;;;;7.39;69.29;101374.44;4920741;28;20055;-82
2022/12/01 05:46:29;;;;;;;61.47;36.80;;;;;;;7.11;68.64;101308.44;4920329;28;20066;-82
2022/12/01 05:49:10;;;;;;;62.53;37.80;;;;;;;6.69;68.88;101249.50;4935924;28;20548;-83
2022/12/01 05:51:37;;;;;;;59.28;36.95;;;;;;;7.82;69.45;101451.00;4936707;28;20051;-82
2022/12/01 05:54:10;;;;;;;60.38;37.25;;;;;;;7.88;69.14;101447.94;4933458;28;20058;-82
2022/12/01 05:56:37;;;;;;;66.28;37.53;;;;;;;6.84;69.49;101289.00;4937536;28;20062;-81
2022/12/01 05:59:07;;;;;;;57.20;36.05;;;;;;;7.93;69.30;101458.22;4935746;28;20144;-82
2022/12/01 06:01:34;;;;;;;58.75;37.92;;;;;;;7.37;69.40;101368.41;4952605;28;20495;-82
2022/12/01 06:04:01;;;;;;;64.57;39.15;;;;;;;7.86;69.54;101439.28;4953521;28;20145;-82
2022/12/01 06:06:27;;;;;;;62.30;36.85;;;;;;;7.72;69.39;101412.88;4934495;28;20126;-80
2022/12/01 06:08:54;;;;;;;57.15;36.80;;;;;;;7.69;69.44;101424.50;4922243;28;20043;-82
2022/12/01 06:11:21;;;;;;;60.08;38.75;;;;;;;8.01;69.70;101465.66;4920228;28;20050;-81
2022/12/01 06:13:48;;;;;;;57.58;37.38;;;;;;;7.88;69.70;101458.53;4940109;28;20051;-80
2022/12/01 06:16:15;;;;;;;63.30;36.95;;;;;;;7.43;68.91;101370.66;4947600;28;20059;-81
2022/12/01 06:18:42;;;;;;;66.18;38.70;;;;;;;7.88;68.85;101447.94;4945663;28;20129;-80
2022/12/01 06:21:08;;;;;;;63.10;36.97;;;;;;;6.54;68.97;101231.03;4940346;28;20086;-82
2022/12/01 06:23:39;;;;;;;62.08;38.15;;;;;;;7.41;69.37;101377.84;4937133;28;20379;-83
2022/12/01 06:26:06;;;;;;;61.65;37.25;;;;;;;6.41;69.42;101230.97;4935771;28;20671;-82
2022/12/01 06:28:33;;;;;;;61.92;37.85;;;;;;;7.79;69.69;101453.84;4920840;28;20677;-81
2022/12/01 06:31:00;;;;;;;60.72;38.40;;;;;;;6.76;69.26;101266.66;4932112;28;20061;-81
2022/12/01 06:33:30;;;;;;;64.20;36.97;;;;;;;7.70;70.38;101442.06;4928284;28;20050;-81
2022/12/01 06:36:04;;;;;;;63.85;38.65;;;;;;;7.80;70.61;101474.03;4920819;28;20054;-82
2022/12/01 06:38:32;;;;;;;59.92;37.25;;;;;;;6.42;69.71;101235.28;4932860;28;20061;-81
2022/12/01 06:41:00;;;;;;;59.40;38.65;;;;;;;7.87;69.75;101472.69;4953150;28;20090;-82
2022/12/01 06:43:27;;;;;;;59.67;36.92;;;;;;;7.88;69.58;101477.03;4937007;28;20117;-82
2022/12/01 06:45:54;;;;;;;56.92;36.53;;;;;;;7.91;70.28;101490.06;4936086;28;20448;-82
2022/12/01 06:48:27;;;;;;;70.05;38.72;;;;;;;7.36;70.06;101393.13;4920963;28;20188;-84
2022/12/01 06:50:57;;;;;;;64.88;37.78;;;;;;;8.04;69.25;101494.59;4938080;28;20559;-83
2022/12/01 06:53:26;;;;;;;59.88;35.97;;;;;;;7.93;69.17;101480.22;4937578;28;20062;-84
2022/12/01 06:56:03;;;;;;;59.08;36.25;;;;;;;7.74;69.24;101445.34;4940339;28;20166;-83
2022/12/01 06:58:31;;;;;;;58.78;36.40;;;;;;;8.01;68.55;101484.19;4933398;28;20046;-84
2022/12/01 07:00:58;;;;;;;62.10;36.53;;;;;;;8.02;68.28;101489.38;4953793;28;20051;-81
2022/12/01 07:03:25;;;;;;;60.20;38.00;;;;;;;8.04;68.72;101500.72;4954293;28;20337;-83
2022/12/01 07:05:57;;;;;;;61.55;37.20;;;;;;;6.49;68.52;101237.56;4941633;28;20046;-82
2022/12/01 07:08:25;;;;;;;;;;;;;;;7.99;68.72;101481.66;4959196;28;20062;-81
2022/12/01 07:11:08;;;;;;;62.42;37.85;;;;;;;8.05;69.05;101497.09;4958133;28;20265;-80
2022/12/01 07:13:35;;;;;;;60.05;36.80;;;;;;;8.07;68.61;101494.38;4959707;28;20053;-81
2022/12/01 07:16:02;;;;;;;61.83;37.22;;;;;;;8.08;68.54;101502.22;4958280;28;20134;-83
2022/12/01 07:18:30;;;;;;;67.57;40.40;;;;;;;8.04;68.54;101490.13;4955149;28;20053;-83
2022/12/01 07:21:01;;;;;;;63.22;37.58;;;;;;;7.76;68.65;101447.88;4937040;28;20050;-84
2022/12/01 07:23:32;;;;;;;61.75;39.10;;;;;;;7.81;69.07;101473.06;4954959;28;20057;-83
2022/12/01 07:26:14;;;;;;;68.32;40.92;;;;;;;8.02;69.13;101509.69;4953389;28;20448;-83
2022/12/01 07:28:51;;;;;;;62.67;40.55;;;;;;;8.02;69.06;101501.75;4953547;28;20062;-82
2022/12/01 07:31:18;;;;;;;68.70;42.70;;;;;;;8.02;69.21;101501.75;4936708;28;20057;-82
2022/12/01 07:33:45;;;;;;;63.92;38.75;;;;;;;7.09;68.99;101361.38;4918360;28;20291;-80
2022/12/01 07:36:13;;;;;;;66.38;38.92;;;;;;;6.62;68.24;101259.56;4938003;28;20975;-81
2022/12/01 07:38:40;;;;;;;63.53;40.75;;;;;;;7.87;68.85;101467.41;4918553;28;20055;-82
2022/12/01 07:41:10;;;;;;;74.15;41.80;;;;;;;8.03;68.46;101495.50;4921873;28;20054;-82
2022/12/01 07:43:37;;;;;;;63.05;38.50;;;;;;;6.80;67.96;101289.28;4921678;28;20320;-82
2022/12/01 07:46:11;;;;;;;62.28;38.72;;;;;;;8.08;68.24;101496.06;4923392;28;20074;-81
2022/12/01 07:48:48;;;;;;;66.10;40.75;;;;;;;7.92;68.46;101481.19;4941182;28;20051;-81
2022/12/01 07:51:16;;;;;;;58.03;38.40;;;;;;;8.02;68.81;101492.03;4922606;28;20062;-82
2022/12/01 07:53:45;;;;;;;63.95;39.92;;;;;;;7.62;68.08;101425.84;4938681;28;20086;-80
2022/12/01 07:56:12;;;;;;;71.07;41.78;;;;;;;7.92;68.48;101475.06;4924245;28;20051;-81
2022/12/01 07:58:39;;;;;;;64.70;38.83;;;;;;;8.12;68.73;101509.00;4945772;28;20631;-79
2022/12/01 08:01:14;;;;;;;61.38;39.13;;;;;;;8.04;68.31;101491.94;4945856;28;20484;-79
2022/12/01 08:03:42;;;;;;;64.80;37.60;;;;;;;8.07;68.95;101504.94;4923787;28;20320;-81
2022/12/01 08:06:11;;;;;;;64.15;39.65;;;;;;;8.17;68.93;101500.75;4937221;28;20540;-78
2022/12/01 08:08:40;;;;;;;64.95;38.60;;;;;;;8.44;67.81;101524.59;4951410;28;20247;-79
2022/12/01 08:11:19;;;;;;;66.15;40.63;;;;;;;8.41;66.91;101518.69;4897883;29;20559;-78
2022/12/01 08:13:47;;;;;;;67.72;38.25;;;;;;;8.41;67.15;101518.69;4896896;29;20051;-78
2022/12/01 08:16:18;;;;;;;57.28;37.55;;;;;;;8.46;67.31;101527.16;4910058;29;20507;-79
2022/12/01 08:18:45;;;;;;;59.33;37.42;;;;;;;8.30;66.95;101512.25;4921863;29;20489;-77
2022/12/01 08:21:20;;;;;;;71.57;41.55;;;;;;;7.94;68.48;101441.44;4914554;29;20055;-79
2022/12/01 08:23:51;;;;;;;60.58;36.92;;;;;;;8.42;67.01;101526.50;4912848;29;20277;-78
2022/12/01 08:26:21;;;;;;;64.82;38.45;;;;;;;8.36;66.99;101526.88;4913831;29;20413;-78
2022/12/01 08:28:51;;;;;;;67.35;37.75;;;;;;;8.35;66.96;101535.78;4912060;29;20051;-77
2022/12/01 08:31:39;;;;;;;59.60;34.63;;;;;;;8.03;67.37;101490.22;4914777;28;20228;-77
2022/12/01 08:34:06;;;;;;;62.53;37.72;;;;;;;8.17;67.15;101516.63;4918880;28;20062;-77
2022/12/01 08:36:34;;;;;;;63.60;37.58;;;;;;;8.00;67.35;101498.34;4926859;28;20132;-78
2022/12/01 08:39:01;;;;;;;60.65;36.22;;;;;;;8.22;68.21;101538.34;4934805;28;20050;-78
2022/12/01 08:41:28;;;;;;;71.30;37.35;;;;;;;8.12;67.10;101513.44;4932480;28;20545;-78
2022/12/01 08:44:00;;;;;;;65.95;36.85;;;;;;;8.08;67.26;101490.78;4934523;28;20149;-78
2022/12/01 08:46:31;;;;;;;67.70;38.85;;;;;;;8.37;67.97;101539.16;4951695;28;20051;-79
2022/12/01 08:48:58;;;;;;;59.55;35.75;;;;;;;8.26;67.33;101529.28;4949949;28;20322;-77
2022/12/01 08:51:27;;;;;;;65.68;36.58;;;;;;;8.26;66.95;101531.06;4951863;28;20263;-76
2022/12/01 08:53:56;;;;;;;66.53;38.97;;;;;;;8.09;67.11;101493.31;4946826;28;20294;-76
2022/12/01 08:56:26;;;;;;;62.50;36.08;;;;;;;8.39;67.46;101539.06;4948688;28;20063;-77
2022/12/01 08:58:54;;;;;;;66.45;38.45;;;;;;;8.38;67.10;101525.00;4922111;28;20508;-77
2022/12/01 09:01:21;;;;;;;65.28;38.83;;;;;;;8.55;66.84;101542.44;4918862;28;20560;-78
2022/12/01 09:04:03;;;;;;;64.70;39.28;;;;;;;8.22;66.99;101503.97;4918896;28;20642;-77
2022/12/01 09:06:42;;;;;;;60.47;35.75;;;;;;;8.42;67.06;101541.53;4934924;28;20316;-77
2022/12/01 09:09:15;;;;;;;64.47;39.63;;;;;;;8.40;67.27;101546.06;4935628;28;20063;-77
2022/12/01 09:11:42;;;;;;;71.20;39.50;;;;;;;8.30;67.77;101544.00;4935138;28;20055;-77
2022/12/01 09:14:14;;;;;;;68.93;38.80;;;;;;;8.47;67.37;101547.38;4916033;28;20519;-77
2022/12/01 09:16:42;;;;;;;64.82;39.72;;;;;;;7.73;67.89;101448.94;4918218;28;20867;-77
2022/12/01 09:19:09;;;;;;;67.10;39.70;;;;;;;8.02;68.05;101496.47;4915332;28;20397;-76
2022/12/01 09:21:39;;;;;;;67.97;40.88;;;;;;;8.41;68.53;101555.72;4915241;28;20411;-78
2022/12/01 09:24:09;;;;;;;67.10;38.75;;;;;;;8.45;66.92;101552.78;4916087;28;20054;-77
2022/12/01 09:26:36;;;;;;;63.20;39.50;;;;;;;8.40;67.54;101546.94;4921623;28;20046;-78
2022/12/01 09:29:09;;;;;;;65.88;41.83;;;;;;;8.55;67.84;101563.63;4922269;28;20062;-77
2022/12/01 09:31:40;;;;;;;60.78;38.40;;;;;;;8.56;67.16;101567.94;4919761;28;20149;-77
2022/12/01 09:34:11;;;;;;;66.97;41.40;;;;;;;8.58;67.71;101558.13;4917646;28;20086;-78
2022/12/01 09:36:41;;;;;;;67.57;39.45;;;;;;;8.62;66.87;101558.78;4918206;28;20194;-78
2022/12/01 09:39:26;;;;;;;68.18;39.25;;;;;;;8.64;67.10;101549.78;4915093;28;20081;-78
2022/12/01 09:41:56;;;;;;;;;;;;;;;8.64;66.62;101563.03;4934692;28;20055;-77
2022/12/01 09:44:44;;;;;;;69.97;39.83;;;;;;;8.51;67.13;101535.66;4920014;28;20330;-77
2022/12/01 09:47:20;;;;;;;63.00;39.88;;;;;;;8.33;67.64;101490.88;4919094;28;20591;-78
2022/12/01 09:49:59;;;;;;;68.45;40.42;;;;;;;8.70;67.33;101549.38;4937640;28;20502;-77
2022/12/01 09:52:38;;;;;;;72.85;41.78;;;;;;;8.77;67.08;101553.31;4921562;28;20050;-79
2022/12/01 09:55:17;;;;;;;66.97;41.00;;;;;;;8.72;67.66;101542.19;4918935;28;20472;-78
2022/12/01 09:57:49;;;;;;;69.28;43.17;;;;;;;8.55;67.19;101502.75;4940029;28;20332;-78
2022/12/01 10:00:22;;;;;;;75.82;44.55;;;;;;;8.61;67.21;101520.84;4937330;28;20531;-77
2022/12/01 10:03:08;;;;;;;69.22;41.03;;;;;;;8.73;67.30;101545.69;4936963;28;20432;-79
2022/12/01 10:05:47;;;;;;;70.57;42.67;;;;;;;8.66;67.69;101529.34;4944800;28;20046;-78
2022/12/01 10:08:38;;;;;;;66.22;40.88;;;;;;;8.68;67.30;101537.19;4919324;28;20649;-78
2022/12/01 10:11:28;;;;;;;71.20;43.28;;;;;;;8.57;68.08;101519.38;4935420;28;20145;-79
2022/12/01 10:13:58;;;;;;;73.88;42.88;;;;;;;8.74;68.14;101526.22;4917303;28;20078;-79
2022/12/01 10:16:37;;;;;;;69.05;42.00;;;;;;;8.77;68.88;101532.13;4917644;28;20047;-79
2022/12/01 10:19:12;;;;;;;67.95;41.17;;;;;;;8.80;68.55;101515.19;4920746;28;20085;-77
2022/12/01 10:21:41;;;;;;;69.65;41.15;;;;;;;8.50;68.24;101466.00;4920942;28;20051;-77
2022/12/01 10:24:27;;;;;;;68.38;41.47;;;;;;;8.96;68.58;101522.97;4942875;28;20460;-77
2022/12/01 10:27:08;;;;;;;73.22;43.55;;;;;;;8.69;68.66;101465.63;4939649;28;20259;-79
2022/12/01 10:30:00;;;;;;;68.38;41.50;;;;;;;9.00;67.36;101527.09;4922416;28;20059;-80
2022/12/01 10:32:42;;;;;;;68.72;40.55;;;;;;;9.00;67.40;101492.66;4944173;28;20250;-77
2022/12/01 10:35:15;;;;;;;65.22;40.92;;;;;;;9.09;67.81;101509.72;4927568;28;20082;-77
2022/12/01 10:37:44;;;;;;;64.88;39.92;;;;;;;9.13;67.86;101509.44;4959372;28;20116;-78
2022/12/01 10:40:15;;;;;;;67.82;40.00;;;;;;;7.66;67.17;101262.63;4957184;28;20050;-78
2022/12/01 10:42:49;;;;;;;63.55;40.13;;;;;;;8.99;66.63;101461.84;4957470;28;20082;-78
2022/12/01 10:45:42;;;;;;;60.58;37.25;;;;;;;9.13;66.40;101468.84;4939371;28;20132;-78
2022/12/01 10:48:17;;;;;;;64.57;39.70;;;;;;;8.93;67.43;101425.16;4937600;28;20043;-79
2022/12/01 10:50:48;;;;;;;59.60;38.10;;;;;;;9.42;66.41;101495.97;4959756;28;20047;-79
2022/12/01 10:53:35;;;;;;;68.90;38.65;;;;;;;9.45;66.81;101495.75;4955021;28;20053;-80
2022/12/01 10:56:17;;;;;;;64.93;36.95;;;;;;;9.43;65.89;101495.00;4942492;28;20050;-78
2022/12/01 10:58:55;;;;;;;56.80;37.40;;;;;;;9.09;66.58;101443.50;4953078;28;20066;-79
2022/12/01 11:01:33;;;;;;;56.38;37.03;;;;;;;9.34;66.51;101482.38;4940886;28;20058;-80
2022/12/01 11:04:43;;;;;;;56.25;35.97;;;;;;;9.38;66.47;101497.13;4937721;28;20815;-78
2022/12/01 11:07:18;;;;;;;57.38;34.60;;;;;;;9.17;66.64;101450.00;4935830;28;20098;-79
2022/12/01 11:10:16;;;;;;;57.08;34.28;;;;;;;8.88;66.33;101406.09;4922262;28;20170;-80
2022/12/01 11:13:03;;;;;;;58.53;34.45;;;;;;;9.06;66.21;101443.72;4915310;29;20059;-79
2022/12/01 11:15:47;;;;;;;63.95;36.67;;;;;;;9.04;66.62;101465.00;4935718;28;20054;-78
2022/12/01 11:18:32;;;;;;;61.17;37.10;;;;;;;8.98;67.14;101455.69;4917394;29;20055;-79
2022/12/01 11:21:24;;;;;;;60.47;35.33;;;;;;;9.15;66.93;101493.41;4917211;29;20482;-80
2022/12/01 11:23:54;;;;;;;60.35;37.40;;;;;;;9.09;66.98;101483.25;4913494;29;20639;-79
2022/12/01 11:26:33;;;;;;;60.83;37.75;;;;;;;8.92;66.92;101461.41;4921041;29;20094;-78
2022/12/01 11:29:02;;;;;;;54.92;35.72;;;;;;;9.00;66.98;101460.88;4919199;29;20051;-80
2022/12/01 11:31:48;;;;;;;56.83;36.03;;;;;;;8.92;67.46;101465.84;4916411;28;20063;-77
2022/12/01 11:34:28;;;;;;;59.92;37.47;;;;;;;9.07;67.38;101480.69;4920817;29;20043;-79
2022/12/01 11:37:01;;;;;;;56.58;36.63;;;;;;;9.05;67.60;101481.75;4920692;28;20110;-80
2022/12/01 11:39:36;;;;;;;62.55;39.05;;;;;;;9.02;68.00;101477.50;4919881;28;20071;-77
2022/12/01 11:42:20;;;;;;;57.58;37.60;;;;;;;9.00;67.89;101474.13;4922310;28;20633;-80
2022/12/01 11:44:58;;;;;;;60.22;37.60;;;;;;;9.09;68.31;101491.19;4940443;28;20606;-78
2022/12/01 11:47:26;;;;;;;64.43;39.55;;;;;;;9.07;68.38;101470.09;4935683;28;20616;-76
2022/12/01 11:49:59;;;;;;;66.30;38.30;;;;;;;9.21;67.22;101482.41;4926456;28;20119;-76
2022/12/01 11:52:28;;;;;;;65.38;38.67;;;;;;;9.07;67.50;101454.19;4933184;28;20150;-78